sensor_id;sensor_type;location;lat;lon;timestamp;P1;durP1;ratioP1;P2;durP2;ratioP2
20649;SDS011;10484;48.736;9.332;2022-07-29T00:00:05;8.90;;;8.10;;
20649;SDS011;10484;48.736;9.332;2022-07-29T00:02:32;8.00;;;7.30;;
20649;SDS011;10484;48.736;9.332;2022-07-29T00:04:58;8.50;;;7.33;;
20649;SDS011;10484;48.736;9.332;2022-07-29T00:07:23;8.77;;;8.00;;
20649;SDS011;10484;48.736;9.332;2022-07-29T00:09:50;8.63;;;7.80;;
20649;SDS011;10484;48.736;9.332;2022-07-29T00:12:16;8.60;;;7.67;;
20649;SDS011;10484;48.736;9.332;2022-07-29T00:14:42;7.80;;;7.10;;
20649;SDS011;10484;48.736;9.332;2022-07-29T00:17:07;7.40;;;6.77;;
20649;SDS011;10484;48.736;9.332;2022-07-29T00:19:33;8.10;;;7.30;;
20649;SDS011;10484;48.736;9.332;2022-07-29T00:21:59;8.47;;;7.77;;
20649;SDS011;10484;48.736;9.332;2022-07-29T00:24:25;10.37;;;7.50;;
20649;SDS011;10484;48.736;9.332;2022-07-29T00:26:51;9.43;;;7.90;;
20649;SDS011;10484;48.736;9.332;2022-07-29T00:29:17;8.20;;;7.40;;
20649;SDS011;10484;48.736;9.332;2022-07-29T00:31:43;9.23;;;7.17;;
20649;SDS011;10484;48.736;9.332;2022-07-29T00:34:09;7.77;;;7.00;;
20649;SDS011;10484;48.736;9.332;2022-07-29T00:36:54;7.87;;;7.27;;
20649;SDS011;10484;48.736;9.332;2022-07-29T00:39:20;7.03;;;6.43;;
20649;SDS011;10484;48.736;9.332;2022-07-29T00:41:46;7.10;;;6.50;;
20649;SDS011;10484;48.736;9.332;2022-07-29T00:44:11;7.07;;;6.57;;
20649;SDS011;10484;48.736;9.332;2022-07-29T00:46:37;8.90;;;8.10;;
20649;SDS011;10484;48.736;9.332;2022-07-29T00:49:03;7.60;;;6.80;;
20649;SDS011;10484;48.736;9.332;2022-07-29T00:51:28;9.57;;;7.77;;
20649;SDS011;10484;48.736;9.332;2022-07-29T00:53:56;8.50;;;6.93;;
20649;SDS011;10484;48.736;9.332;2022-07-29T00:56:21;7.67;;;6.97;;
20649;SDS011;10484;48.736;9.332;2022-07-29T00:58:47;10.53;;;8.20;;
20649;SDS011;10484;48.736;9.332;2022-07-29T01:01:15;8.03;;;7.30;;
20649;SDS011;10484;48.736;9.332;2022-07-29T01:03:41;6.93;;;6.33;;
20649;SDS011;10484;48.736;9.332;2022-07-29T01:06:06;7.47;;;6.77;;
20649;SDS011;10484;48.736;9.332;2022-07-29T01:08:32;7.33;;;6.73;;
20649;SDS011;10484;48.736;9.332;2022-07-29T01:10:59;9.10;;;8.30;;
20649;SDS011;10484;48.736;9.332;2022-07-29T01:13:26;7.80;;;7.10;;
20649;SDS011;10484;48.736;9.332;2022-07-29T01:15:56;12.97;;;7.57;;
20649;SDS011;10484;48.736;9.332;2022-07-29T01:18:30;9.67;;;7.47;;
20649;SDS011;10484;48.736;9.332;2022-07-29T01:24:02;7.07;;;6.37;;
20649;SDS011;10484;48.736;9.332;2022-07-29T01:26:42;7.93;;;6.60;;
20649;SDS011;10484;48.736;9.332;2022-07-29T01:32:02;12.03;;;7.30;;
20649;SDS011;10484;48.736;9.332;2022-07-29T01:34:39;6.90;;;6.40;;
20649;SDS011;10484;48.736;9.332;2022-07-29T01:37:18;11.20;;;7.27;;
20649;SDS011;10484;48.736;9.332;2022-07-29T01:39:51;7.60;;;6.83;;
20649;SDS011;10484;48.736;9.332;2022-07-29T01:42:26;10.47;;;7.20;;
20649;SDS011;10484;48.736;9.332;2022-07-29T01:44:59;7.63;;;6.93;;
20649;SDS011;10484;48.736;9.332;2022-07-29T01:47:46;7.57;;;7.07;;
20649;SDS011;10484;48.736;9.332;2022-07-29T01:50:16;10.77;;;6.93;;
20649;SDS011;10484;48.736;9.332;2022-07-29T01:52:46;11.43;;;7.57;;
20649;SDS011;10484;48.736;9.332;2022-07-29T01:55:19;8.23;;;6.87;;
20649;SDS011;10484;48.736;9.332;2022-07-29T01:57:47;8.20;;;7.40;;
20649;SDS011;10484;48.736;9.332;2022-07-29T02:00:15;9.07;;;7.17;;
20649;SDS011;10484;48.736;9.332;2022-07-29T02:02:42;10.70;;;7.17;;
20649;SDS011;10484;48.736;9.332;2022-07-29T02:05:11;7.70;;;7.00;;
20649;SDS011;10484;48.736;9.332;2022-07-29T02:07:40;7.40;;;6.73;;
20649;SDS011;10484;48.736;9.332;2022-07-29T02:10:07;7.80;;;6.83;;
20649;SDS011;10484;48.736;9.332;2022-07-29T02:12:34;7.40;;;6.70;;
20649;SDS011;10484;48.736;9.332;2022-07-29T02:15:01;7.70;;;6.90;;
20649;SDS011;10484;48.736;9.332;2022-07-29T02:17:31;7.37;;;6.77;;
20649;SDS011;10484;48.736;9.332;2022-07-29T02:20:02;11.40;;;8.07;;
20649;SDS011;10484;48.736;9.332;2022-07-29T02:22:30;8.40;;;6.47;;
20649;SDS011;10484;48.736;9.332;2022-07-29T02:24:58;7.20;;;6.60;;
20649;SDS011;10484;48.736;9.332;2022-07-29T02:27:24;18.63;;;7.33;;
20649;SDS011;10484;48.736;9.332;2022-07-29T02:29:53;7.03;;;6.33;;
20649;SDS011;10484;48.736;9.332;2022-07-29T02:32:21;7.17;;;6.57;;
20649;SDS011;10484;48.736;9.332;2022-07-29T02:34:47;14.77;;;7.10;;
20649;SDS011;10484;48.736;9.332;2022-07-29T02:37:14;8.90;;;6.97;;
20649;SDS011;10484;48.736;9.332;2022-07-29T02:39:42;6.90;;;6.20;;
20649;SDS011;10484;48.736;9.332;2022-07-29T02:42:10;9.70;;;6.90;;
20649;SDS011;10484;48.736;9.332;2022-07-29T02:44:38;13.80;;;7.30;;
20649;SDS011;10484;48.736;9.332;2022-07-29T02:47:13;7.63;;;7.07;;
20649;SDS011;10484;48.736;9.332;2022-07-29T02:55:04;7.87;;;7.17;;
20649;SDS011;10484;48.736;9.332;2022-07-29T02:57:42;7.33;;;6.60;;
20649;SDS011;10484;48.736;9.332;2022-07-29T03:00:08;15.53;;;7.80;;
20649;SDS011;10484;48.736;9.332;2022-07-29T03:02:38;10.83;;;7.60;;
20649;SDS011;10484;48.736;9.332;2022-07-29T03:05:08;10.90;;;6.90;;
20649;SDS011;10484;48.736;9.332;2022-07-29T03:07:37;7.10;;;6.50;;
20649;SDS011;10484;48.736;9.332;2022-07-29T03:10:06;7.60;;;6.73;;
20649;SDS011;10484;48.736;9.332;2022-07-29T03:12:33;8.10;;;7.30;;
20649;SDS011;10484;48.736;9.332;2022-07-29T03:15:00;7.63;;;6.93;;
20649;SDS011;10484;48.736;9.332;2022-07-29T03:17:27;7.80;;;6.97;;
20649;SDS011;10484;48.736;9.332;2022-07-29T03:19:53;8.63;;;6.83;;
20649;SDS011;10484;48.736;9.332;2022-07-29T03:22:19;7.87;;;7.07;;
20649;SDS011;10484;48.736;9.332;2022-07-29T03:24:45;8.00;;;7.03;;
20649;SDS011;10484;48.736;9.332;2022-07-29T03:27:11;7.53;;;6.83;;
20649;SDS011;10484;48.736;9.332;2022-07-29T03:29:36;8.30;;;7.47;;
20649;SDS011;10484;48.736;9.332;2022-07-29T03:32:03;7.90;;;7.20;;
20649;SDS011;10484;48.736;9.332;2022-07-29T03:34:30;11.93;;;6.90;;
20649;SDS011;10484;48.736;9.332;2022-07-29T03:36:56;8.10;;;7.30;;
20649;SDS011;10484;48.736;9.332;2022-07-29T03:39:22;9.83;;;6.93;;
20649;SDS011;10484;48.736;9.332;2022-07-29T03:41:52;14.40;;;7.90;;
20649;SDS011;10484;48.736;9.332;2022-07-29T03:44:20;13.23;;;6.87;;
20649;SDS011;10484;48.736;9.332;2022-07-29T03:46:47;10.20;;;7.17;;
20649;SDS011;10484;48.736;9.332;2022-07-29T03:49:14;12.00;;;7.00;;
20649;SDS011;10484;48.736;9.332;2022-07-29T03:51:42;6.77;;;6.17;;
20649;SDS011;10484;48.736;9.332;2022-07-29T03:54:07;8.43;;;6.80;;
20649;SDS011;10484;48.736;9.332;2022-07-29T03:56:34;8.77;;;7.53;;
20649;SDS011;10484;48.736;9.332;2022-07-29T03:59:03;8.10;;;7.50;;
20649;SDS011;10484;48.736;9.332;2022-07-29T04:01:30;9.07;;;6.37;;
20649;SDS011;10484;48.736;9.332;2022-07-29T04:03:58;6.40;;;6.00;;
20649;SDS011;10484;48.736;9.332;2022-07-29T04:06:25;7.37;;;6.77;;
20649;SDS011;10484;48.736;9.332;2022-07-29T04:08:51;8.80;;;6.03;;
20649;SDS011;10484;48.736;9.332;2022-07-29T04:11:17;8.53;;;6.83;;
20649;SDS011;10484;48.736;9.332;2022-07-29T04:13:42;8.00;;;6.23;;
20649;SDS011;10484;48.736;9.332;2022-07-29T04:16:08;7.27;;;5.60;;
20649;SDS011;10484;48.736;9.332;2022-07-29T04:18:34;7.33;;;6.30;;
20649;SDS011;10484;48.736;9.332;2022-07-29T04:20:59;10.63;;;6.37;;
20649;SDS011;10484;48.736;9.332;2022-07-29T04:23:26;8.70;;;6.33;;
20649;SDS011;10484;48.736;9.332;2022-07-29T04:25:54;10.50;;;6.27;;
20649;SDS011;10484;48.736;9.332;2022-07-29T04:28:19;7.67;;;6.83;;
20649;SDS011;10484;48.736;9.332;2022-07-29T04:30:45;8.47;;;6.60;;
20649;SDS011;10484;48.736;9.332;2022-07-29T04:33:11;13.20;;;8.47;;
20649;SDS011;10484;48.736;9.332;2022-07-29T04:35:37;11.10;;;6.83;;
20649;SDS011;10484;48.736;9.332;2022-07-29T04:38:03;7.93;;;6.80;;
20649;SDS011;10484;48.736;9.332;2022-07-29T04:40:29;9.50;;;7.10;;
20649;SDS011;10484;48.736;9.332;2022-07-29T04:42:55;8.40;;;7.63;;
20649;SDS011;10484;48.736;9.332;2022-07-29T04:45:21;8.27;;;7.30;;
20649;SDS011;10484;48.736;9.332;2022-07-29T04:47:47;7.83;;;7.23;;
20649;SDS011;10484;48.736;9.332;2022-07-29T04:50:12;11.53;;;7.97;;
20649;SDS011;10484;48.736;9.332;2022-07-29T04:52:38;11.53;;;7.63;;
20649;SDS011;10484;48.736;9.332;2022-07-29T04:55:04;7.70;;;6.90;;
20649;SDS011;10484;48.736;9.332;2022-07-29T04:57:30;18.90;;;7.97;;
20649;SDS011;10484;48.736;9.332;2022-07-29T04:59:56;9.30;;;7.00;;
20649;SDS011;10484;48.736;9.332;2022-07-29T05:02:22;19.23;;;9.27;;
20649;SDS011;10484;48.736;9.332;2022-07-29T05:04:48;11.93;;;7.63;;
20649;SDS011;10484;48.736;9.332;2022-07-29T05:07:13;9.17;;;7.97;;
20649;SDS011;10484;48.736;9.332;2022-07-29T05:09:40;16.10;;;7.90;;
20649;SDS011;10484;48.736;9.332;2022-07-29T05:12:06;12.73;;;7.90;;
20649;SDS011;10484;48.736;9.332;2022-07-29T05:14:32;13.97;;;8.43;;
20649;SDS011;10484;48.736;9.332;2022-07-29T05:16:58;11.50;;;7.70;;
20649;SDS011;10484;48.736;9.332;2022-07-29T05:19:24;12.17;;;8.50;;
20649;SDS011;10484;48.736;9.332;2022-07-29T05:21:49;9.00;;;8.20;;
20649;SDS011;10484;48.736;9.332;2022-07-29T05:24:15;12.23;;;9.80;;
20649;SDS011;10484;48.736;9.332;2022-07-29T05:26:41;14.83;;;9.67;;
20649;SDS011;10484;48.736;9.332;2022-07-29T05:29:07;13.07;;;9.33;;
20649;SDS011;10484;48.736;9.332;2022-07-29T05:31:33;13.73;;;9.97;;
20649;SDS011;10484;48.736;9.332;2022-07-29T05:33:59;11.73;;;10.83;;
20649;SDS011;10484;48.736;9.332;2022-07-29T05:36:25;10.80;;;9.70;;
20649;SDS011;10484;48.736;9.332;2022-07-29T05:38:50;16.33;;;9.80;;
20649;SDS011;10484;48.736;9.332;2022-07-29T05:41:17;10.57;;;9.77;;
20649;SDS011;10484;48.736;9.332;2022-07-29T05:43:46;11.93;;;10.90;;
20649;SDS011;10484;48.736;9.332;2022-07-29T05:46:11;12.47;;;11.37;;
20649;SDS011;10484;48.736;9.332;2022-07-29T05:48:38;13.93;;;11.77;;
20649;SDS011;10484;48.736;9.332;2022-07-29T05:51:04;12.83;;;11.73;;
20649;SDS011;10484;48.736;9.332;2022-07-29T05:53:30;12.80;;;11.60;;
20649;SDS011;10484;48.736;9.332;2022-07-29T05:55:56;12.10;;;11.00;;
20649;SDS011;10484;48.736;9.332;2022-07-29T05:58:21;17.20;;;12.30;;
20649;SDS011;10484;48.736;9.332;2022-07-29T06:00:47;13.83;;;12.53;;
20649;SDS011;10484;48.736;9.332;2022-07-29T06:03:13;14.60;;;13.13;;
20649;SDS011;10484;48.736;9.332;2022-07-29T06:05:38;15.00;;;13.50;;
20649;SDS011;10484;48.736;9.332;2022-07-29T06:08:04;15.37;;;13.80;;
20649;SDS011;10484;48.736;9.332;2022-07-29T06:10:36;15.87;;;13.50;;
20649;SDS011;10484;48.736;9.332;2022-07-29T06:13:02;14.80;;;13.37;;
20649;SDS011;10484;48.736;9.332;2022-07-29T06:15:28;13.87;;;12.47;;
20649;SDS011;10484;48.736;9.332;2022-07-29T06:17:53;14.90;;;12.87;;
20649;SDS011;10484;48.736;9.332;2022-07-29T06:20:19;14.50;;;11.30;;
20649;SDS011;10484;48.736;9.332;2022-07-29T06:22:45;13.63;;;12.40;;
20649;SDS011;10484;48.736;9.332;2022-07-29T06:25:11;12.77;;;11.50;;
20649;SDS011;10484;48.736;9.332;2022-07-29T06:27:36;12.40;;;11.30;;
20649;SDS011;10484;48.736;9.332;2022-07-29T06:30:02;11.70;;;10.53;;
20649;SDS011;10484;48.736;9.332;2022-07-29T06:32:31;12.50;;;11.30;;
20649;SDS011;10484;48.736;9.332;2022-07-29T06:34:57;11.27;;;10.27;;
20649;SDS011;10484;48.736;9.332;2022-07-29T06:37:23;12.47;;;11.57;;
20649;SDS011;10484;48.736;9.332;2022-07-29T06:39:48;12.30;;;11.10;;
20649;SDS011;10484;48.736;9.332;2022-07-29T06:42:34;13.20;;;10.93;;
20649;SDS011;10484;48.736;9.332;2022-07-29T06:44:59;12.87;;;10.43;;
20649;SDS011;10484;48.736;9.332;2022-07-29T06:47:25;10.87;;;10.00;;
20649;SDS011;10484;48.736;9.332;2022-07-29T06:49:51;11.30;;;10.30;;
20649;SDS011;10484;48.736;9.332;2022-07-29T06:52:16;10.13;;;9.23;;
20649;SDS011;10484;48.736;9.332;2022-07-29T06:54:42;10.00;;;9.10;;
20649;SDS011;10484;48.736;9.332;2022-07-29T06:57:12;9.30;;;8.50;;
20649;SDS011;10484;48.736;9.332;2022-07-29T06:59:38;8.93;;;8.13;;
20649;SDS011;10484;48.736;9.332;2022-07-29T07:02:04;10.00;;;9.13;;
20649;SDS011;10484;48.736;9.332;2022-07-29T07:04:29;9.43;;;8.70;;
20649;SDS011;10484;48.736;9.332;2022-07-29T07:06:55;9.80;;;8.50;;
20649;SDS011;10484;48.736;9.332;2022-07-29T07:09:21;9.97;;;8.30;;
20649;SDS011;10484;48.736;9.332;2022-07-29T07:11:47;9.00;;;8.10;;
20649;SDS011;10484;48.736;9.332;2022-07-29T07:14:13;8.50;;;6.87;;
20649;SDS011;10484;48.736;9.332;2022-07-29T07:16:39;8.73;;;8.03;;
20649;SDS011;10484;48.736;9.332;2022-07-29T07:19:04;7.73;;;7.03;;
20649;SDS011;10484;48.736;9.332;2022-07-29T07:21:30;9.90;;;8.90;;
20649;SDS011;10484;48.736;9.332;2022-07-29T07:23:57;9.73;;;8.67;;
20649;SDS011;10484;48.736;9.332;2022-07-29T07:26:23;7.87;;;7.27;;
20649;SDS011;10484;48.736;9.332;2022-07-29T07:28:49;8.40;;;7.50;;
20649;SDS011;10484;48.736;9.332;2022-07-29T07:31:14;8.10;;;7.50;;
20649;SDS011;10484;48.736;9.332;2022-07-29T07:33:40;7.63;;;7.00;;
20649;SDS011;10484;48.736;9.332;2022-07-29T07:36:06;8.33;;;7.63;;
20649;SDS011;10484;48.736;9.332;2022-07-29T07:38:31;9.07;;;8.07;;
20649;SDS011;10484;48.736;9.332;2022-07-29T07:40:57;8.60;;;7.80;;
20649;SDS011;10484;48.736;9.332;2022-07-29T07:43:23;8.13;;;7.43;;
20649;SDS011;10484;48.736;9.332;2022-07-29T07:45:48;7.67;;;6.90;;
20649;SDS011;10484;48.736;9.332;2022-07-29T07:48:14;12.70;;;9.27;;
20649;SDS011;10484;48.736;9.332;2022-07-29T07:50:39;8.40;;;7.57;;
20649;SDS011;10484;48.736;9.332;2022-07-29T07:53:05;10.40;;;7.20;;
20649;SDS011;10484;48.736;9.332;2022-07-29T07:55:31;7.53;;;6.93;;
20649;SDS011;10484;48.736;9.332;2022-07-29T07:57:56;7.80;;;6.97;;
20649;SDS011;10484;48.736;9.332;2022-07-29T08:00:22;7.10;;;6.60;;
20649;SDS011;10484;48.736;9.332;2022-07-29T08:02:48;7.37;;;6.67;;
20649;SDS011;10484;48.736;9.332;2022-07-29T08:05:14;6.27;;;5.67;;
20649;SDS011;10484;48.736;9.332;2022-07-29T08:07:44;6.73;;;6.13;;
20649;SDS011;10484;48.736;9.332;2022-07-29T08:10:11;6.80;;;6.30;;
20649;SDS011;10484;48.736;9.332;2022-07-29T08:12:37;6.60;;;6.10;;
20649;SDS011;10484;48.736;9.332;2022-07-29T08:15:03;6.40;;;5.90;;
20649;SDS011;10484;48.736;9.332;2022-07-29T08:17:29;6.57;;;5.80;;
20649;SDS011;10484;48.736;9.332;2022-07-29T08:19:55;6.87;;;5.90;;
20649;SDS011;10484;48.736;9.332;2022-07-29T08:22:20;7.10;;;6.20;;
20649;SDS011;10484;48.736;9.332;2022-07-29T08:24:46;7.30;;;6.10;;
20649;SDS011;10484;48.736;9.332;2022-07-29T08:27:17;6.60;;;6.10;;
20649;SDS011;10484;48.736;9.332;2022-07-29T08:29:44;6.30;;;5.70;;
20649;SDS011;10484;48.736;9.332;2022-07-29T08:32:10;5.63;;;5.20;;
20649;SDS011;10484;48.736;9.332;2022-07-29T08:34:36;5.90;;;5.50;;
20649;SDS011;10484;48.736;9.332;2022-07-29T08:37:01;7.07;;;6.57;;
20649;SDS011;10484;48.736;9.332;2022-07-29T08:39:27;5.77;;;5.27;;
20649;SDS011;10484;48.736;9.332;2022-07-29T08:41:53;5.80;;;5.30;;
20649;SDS011;10484;48.736;9.332;2022-07-29T08:44:19;7.07;;;5.13;;
20649;SDS011;10484;48.736;9.332;2022-07-29T08:46:47;5.10;;;4.60;;
20649;SDS011;10484;48.736;9.332;2022-07-29T08:49:14;6.10;;;5.60;;
20649;SDS011;10484;48.736;9.332;2022-07-29T08:51:40;5.87;;;5.37;;
20649;SDS011;10484;48.736;9.332;2022-07-29T08:54:07;5.70;;;5.20;;
20649;SDS011;10484;48.736;9.332;2022-07-29T08:56:34;6.23;;;5.57;;
20649;SDS011;10484;48.736;9.332;2022-07-29T08:59:02;6.40;;;5.80;;
20649;SDS011;10484;48.736;9.332;2022-07-29T09:01:30;7.97;;;5.20;;
20649;SDS011;10484;48.736;9.332;2022-07-29T09:03:58;6.37;;;5.50;;
20649;SDS011;10484;48.736;9.332;2022-07-29T09:06:26;4.67;;;4.27;;
20649;SDS011;10484;48.736;9.332;2022-07-29T09:08:58;4.70;;;4.40;;
20649;SDS011;10484;48.736;9.332;2022-07-29T09:11:24;5.50;;;5.10;;
20649;SDS011;10484;48.736;9.332;2022-07-29T09:13:50;6.10;;;4.50;;
20649;SDS011;10484;48.736;9.332;2022-07-29T09:16:16;7.50;;;5.23;;
20649;SDS011;10484;48.736;9.332;2022-07-29T09:18:42;5.40;;;4.87;;
20649;SDS011;10484;48.736;9.332;2022-07-29T09:21:11;5.40;;;4.90;;
20649;SDS011;10484;48.736;9.332;2022-07-29T09:26:41;6.30;;;5.70;;
20649;SDS011;10484;48.736;9.332;2022-07-29T09:29:12;6.00;;;5.50;;
20649;SDS011;10484;48.736;9.332;2022-07-29T09:31:43;6.27;;;5.10;;
20649;SDS011;10484;48.736;9.332;2022-07-29T09:34:10;5.77;;;5.13;;
20649;SDS011;10484;48.736;9.332;2022-07-29T09:36:38;5.63;;;5.17;;
20649;SDS011;10484;48.736;9.332;2022-07-29T09:39:05;5.70;;;5.20;;
20649;SDS011;10484;48.736;9.332;2022-07-29T09:41:43;10.23;;;5.10;;
20649;SDS011;10484;48.736;9.332;2022-07-29T09:44:19;5.93;;;5.43;;
20649;SDS011;10484;48.736;9.332;2022-07-29T09:49:31;5.00;;;4.50;;
20649;SDS011;10484;48.736;9.332;2022-07-29T09:52:03;5.07;;;4.67;;
20649;SDS011;10484;48.736;9.332;2022-07-29T09:54:31;5.97;;;5.47;;
20649;SDS011;10484;48.736;9.332;2022-07-29T09:57:01;5.70;;;5.27;;
20649;SDS011;10484;48.736;9.332;2022-07-29T09:59:29;5.60;;;5.20;;
20649;SDS011;10484;48.736;9.332;2022-07-29T10:01:55;5.50;;;5.07;;
20649;SDS011;10484;48.736;9.332;2022-07-29T10:04:21;5.33;;;5.03;;
20649;SDS011;10484;48.736;9.332;2022-07-29T10:09:26;5.07;;;4.50;;
20649;SDS011;10484;48.736;9.332;2022-07-29T10:14:34;6.47;;;5.80;;
20649;SDS011;10484;48.736;9.332;2022-07-29T10:17:04;5.77;;;5.27;;
20649;SDS011;10484;48.736;9.332;2022-07-29T10:19:31;6.97;;;5.37;;
20649;SDS011;10484;48.736;9.332;2022-07-29T10:21:58;5.80;;;5.40;;
20649;SDS011;10484;48.736;9.332;2022-07-29T10:24:25;5.87;;;5.30;;
20649;SDS011;10484;48.736;9.332;2022-07-29T10:26:53;5.40;;;5.00;;
20649;SDS011;10484;48.736;9.332;2022-07-29T10:29:24;5.80;;;5.40;;
20649;SDS011;10484;48.736;9.332;2022-07-29T10:32:35;6.30;;;5.77;;
20649;SDS011;10484;48.736;9.332;2022-07-29T10:35:09;6.13;;;5.00;;
20649;SDS011;10484;48.736;9.332;2022-07-29T10:43:58;5.27;;;4.87;;
20649;SDS011;10484;48.736;9.332;2022-07-29T10:46:35;5.77;;;5.30;;
20649;SDS011;10484;48.736;9.332;2022-07-29T10:49:18;6.27;;;5.77;;
20649;SDS011;10484;48.736;9.332;2022-07-29T10:52:05;6.20;;;5.00;;
20649;SDS011;10484;48.736;9.332;2022-07-29T10:59:49;7.83;;;5.40;;
20649;SDS011;10484;48.736;9.332;2022-07-29T11:05:08;5.63;;;5.13;;
20649;SDS011;10484;48.736;9.332;2022-07-29T11:07:35;5.17;;;4.67;;
20649;SDS011;10484;48.736;9.332;2022-07-29T11:15:03;5.77;;;5.23;;
20649;SDS011;10484;48.736;9.332;2022-07-29T11:23:29;5.60;;;5.17;;
20649;SDS011;10484;48.736;9.332;2022-07-29T11:31:40;5.93;;;4.53;;
20649;SDS011;10484;48.736;9.332;2022-07-29T11:34:25;6.23;;;3.83;;
20649;SDS011;10484;48.736;9.332;2022-07-29T11:39:33;4.60;;;3.07;;
20649;SDS011;10484;48.736;9.332;2022-07-29T11:47:22;4.17;;;2.70;;
20649;SDS011;10484;48.736;9.332;2022-07-29T11:49:50;4.40;;;2.80;;
20649;SDS011;10484;48.736;9.332;2022-07-29T11:52:16;7.20;;;3.77;;
20649;SDS011;10484;48.736;9.332;2022-07-29T11:54:43;3.90;;;2.60;;
20649;SDS011;10484;48.736;9.332;2022-07-29T11:57:12;6.63;;;3.17;;
20649;SDS011;10484;48.736;9.332;2022-07-29T11:59:40;4.60;;;2.30;;
20649;SDS011;10484;48.736;9.332;2022-07-29T12:02:06;4.80;;;3.20;;
20649;SDS011;10484;48.736;9.332;2022-07-29T12:04:33;5.27;;;3.67;;
20649;SDS011;10484;48.736;9.332;2022-07-29T12:07:12;10.93;;;3.70;;
20649;SDS011;10484;48.736;9.332;2022-07-29T12:09:38;4.27;;;3.53;;
20649;SDS011;10484;48.736;9.332;2022-07-29T12:12:04;8.80;;;3.67;;
20649;SDS011;10484;48.736;9.332;2022-07-29T12:14:33;6.43;;;3.13;;
20649;SDS011;10484;48.736;9.332;2022-07-29T12:16:59;4.50;;;3.70;;
20649;SDS011;10484;48.736;9.332;2022-07-29T12:19:26;5.73;;;4.00;;
20649;SDS011;10484;48.736;9.332;2022-07-29T12:21:53;9.03;;;4.27;;
20649;SDS011;10484;48.736;9.332;2022-07-29T12:24:20;4.73;;;3.47;;
20649;SDS011;10484;48.736;9.332;2022-07-29T12:26:56;5.17;;;3.20;;
20649;SDS011;10484;48.736;9.332;2022-07-29T12:29:23;6.27;;;3.70;;
20649;SDS011;10484;48.736;9.332;2022-07-29T12:31:52;5.53;;;3.67;;
20649;SDS011;10484;48.736;9.332;2022-07-29T12:34:19;4.40;;;4.00;;
20649;SDS011;10484;48.736;9.332;2022-07-29T12:36:48;8.93;;;3.53;;
20649;SDS011;10484;48.736;9.332;2022-07-29T12:39:15;6.30;;;3.70;;
20649;SDS011;10484;48.736;9.332;2022-07-29T12:41:42;4.60;;;3.97;;
20649;SDS011;10484;48.736;9.332;2022-07-29T12:44:08;4.47;;;4.10;;
20649;SDS011;10484;48.736;9.332;2022-07-29T12:46:34;8.60;;;4.97;;
20649;SDS011;10484;48.736;9.332;2022-07-29T12:48:59;5.50;;;4.43;;
20649;SDS011;10484;48.736;9.332;2022-07-29T12:51:32;4.73;;;4.00;;
20649;SDS011;10484;48.736;9.332;2022-07-29T12:56:42;5.60;;;4.80;;
20649;SDS011;10484;48.736;9.332;2022-07-29T12:59:12;3.67;;;3.23;;
20649;SDS011;10484;48.736;9.332;2022-07-29T13:01:39;6.23;;;4.50;;
20649;SDS011;10484;48.736;9.332;2022-07-29T13:04:05;6.93;;;3.63;;
20649;SDS011;10484;48.736;9.332;2022-07-29T13:06:41;6.73;;;3.83;;
20649;SDS011;10484;48.736;9.332;2022-07-29T13:09:09;6.40;;;4.67;;
20649;SDS011;10484;48.736;9.332;2022-07-29T13:11:49;5.70;;;4.30;;
20649;SDS011;10484;48.736;9.332;2022-07-29T13:14:31;6.50;;;4.40;;
20649;SDS011;10484;48.736;9.332;2022-07-29T13:17:03;4.83;;;4.10;;
20649;SDS011;10484;48.736;9.332;2022-07-29T13:22:11;4.70;;;4.30;;
20649;SDS011;10484;48.736;9.332;2022-07-29T13:24:45;3.53;;;3.23;;
20649;SDS011;10484;48.736;9.332;2022-07-29T13:27:21;4.27;;;3.97;;
20649;SDS011;10484;48.736;9.332;2022-07-29T13:29:51;5.20;;;4.40;;
20649;SDS011;10484;48.736;9.332;2022-07-29T13:32:18;6.10;;;5.37;;
20649;SDS011;10484;48.736;9.332;2022-07-29T13:34:47;6.80;;;5.30;;
20649;SDS011;10484;48.736;9.332;2022-07-29T13:37:13;7.10;;;5.17;;
20649;SDS011;10484;48.736;9.332;2022-07-29T13:39:39;8.80;;;5.10;;
20649;SDS011;10484;48.736;9.332;2022-07-29T13:42:05;6.20;;;5.30;;
20649;SDS011;10484;48.736;9.332;2022-07-29T13:44:32;7.53;;;5.03;;
20649;SDS011;10484;48.736;9.332;2022-07-29T13:46:57;7.03;;;5.97;;
20649;SDS011;10484;48.736;9.332;2022-07-29T13:49:26;6.10;;;5.50;;
20649;SDS011;10484;48.736;9.332;2022-07-29T13:51:52;6.10;;;5.47;;
20649;SDS011;10484;48.736;9.332;2022-07-29T13:54:18;6.00;;;5.40;;
20649;SDS011;10484;48.736;9.332;2022-07-29T13:56:44;9.23;;;6.20;;
20649;SDS011;10484;48.736;9.332;2022-07-29T13:59:10;12.20;;;6.53;;
20649;SDS011;10484;48.736;9.332;2022-07-29T14:01:36;6.93;;;6.33;;
20649;SDS011;10484;48.736;9.332;2022-07-29T14:04:02;7.37;;;6.60;;
20649;SDS011;10484;48.736;9.332;2022-07-29T14:06:28;6.60;;;6.10;;
20649;SDS011;10484;48.736;9.332;2022-07-29T14:08:54;7.03;;;6.43;;
20649;SDS011;10484;48.736;9.332;2022-07-29T14:11:20;8.67;;;7.10;;
20649;SDS011;10484;48.736;9.332;2022-07-29T14:13:45;7.90;;;7.20;;
20649;SDS011;10484;48.736;9.332;2022-07-29T14:16:11;6.97;;;6.30;;
20649;SDS011;10484;48.736;9.332;2022-07-29T14:18:37;7.33;;;6.50;;
20649;SDS011;10484;48.736;9.332;2022-07-29T14:21:03;7.37;;;6.67;;
20649;SDS011;10484;48.736;9.332;2022-07-29T14:23:28;10.00;;;9.10;;
20649;SDS011;10484;48.736;9.332;2022-07-29T14:25:54;8.93;;;8.20;;
20649;SDS011;10484;48.736;9.332;2022-07-29T14:28:20;8.30;;;7.60;;
20649;SDS011;10484;48.736;9.332;2022-07-29T14:30:45;7.50;;;6.80;;
20649;SDS011;10484;48.736;9.332;2022-07-29T14:33:11;9.87;;;6.80;;
20649;SDS011;10484;48.736;9.332;2022-07-29T14:35:37;7.93;;;7.00;;
20649;SDS011;10484;48.736;9.332;2022-07-29T14:38:03;7.43;;;6.83;;
20649;SDS011;10484;48.736;9.332;2022-07-29T14:40:29;7.03;;;6.50;;
20649;SDS011;10484;48.736;9.332;2022-07-29T14:42:55;8.43;;;7.73;;
20649;SDS011;10484;48.736;9.332;2022-07-29T14:45:20;8.40;;;7.70;;
20649;SDS011;10484;48.736;9.332;2022-07-29T14:47:46;9.60;;;8.80;;
20649;SDS011;10484;48.736;9.332;2022-07-29T14:50:12;10.13;;;9.00;;
20649;SDS011;10484;48.736;9.332;2022-07-29T14:52:38;10.20;;;8.57;;
20649;SDS011;10484;48.736;9.332;2022-07-29T14:55:04;9.60;;;8.80;;
20649;SDS011;10484;48.736;9.332;2022-07-29T14:57:30;10.83;;;9.90;;
20649;SDS011;10484;48.736;9.332;2022-07-29T14:59:56;9.23;;;8.50;;
20649;SDS011;10484;48.736;9.332;2022-07-29T15:02:21;11.20;;;8.33;;
20649;SDS011;10484;48.736;9.332;2022-07-29T15:04:47;11.67;;;9.40;;
20649;SDS011;10484;48.736;9.332;2022-07-29T15:07:14;10.07;;;9.17;;
20649;SDS011;10484;48.736;9.332;2022-07-29T15:09:40;10.70;;;9.80;;
20649;SDS011;10484;48.736;9.332;2022-07-29T15:12:07;11.33;;;9.30;;
20649;SDS011;10484;48.736;9.332;2022-07-29T15:14:35;9.77;;;9.00;;
20649;SDS011;10484;48.736;9.332;2022-07-29T15:17:01;10.17;;;9.37;;
20649;SDS011;10484;48.736;9.332;2022-07-29T15:19:27;9.97;;;9.10;;
20649;SDS011;10484;48.736;9.332;2022-07-29T15:21:52;10.80;;;9.43;;
20649;SDS011;10484;48.736;9.332;2022-07-29T15:24:18;11.27;;;10.17;;
20649;SDS011;10484;48.736;9.332;2022-07-29T15:26:44;10.37;;;9.27;;
20649;SDS011;10484;48.736;9.332;2022-07-29T15:29:10;12.13;;;10.93;;
20649;SDS011;10484;48.736;9.332;2022-07-29T15:31:36;11.87;;;9.90;;
20649;SDS011;10484;48.736;9.332;2022-07-29T15:34:02;11.20;;;10.23;;
20649;SDS011;10484;48.736;9.332;2022-07-29T15:36:28;13.47;;;11.00;;
20649;SDS011;10484;48.736;9.332;2022-07-29T15:38:54;12.43;;;11.03;;
20649;SDS011;10484;48.736;9.332;2022-07-29T15:41:20;12.30;;;10.83;;
20649;SDS011;10484;48.736;9.332;2022-07-29T15:43:47;12.97;;;11.37;;
20649;SDS011;10484;48.736;9.332;2022-07-29T15:46:13;16.20;;;13.63;;
20649;SDS011;10484;48.736;9.332;2022-07-29T15:48:59;21.70;;;11.77;;
20649;SDS011;10484;48.736;9.332;2022-07-29T15:51:25;12.87;;;11.53;;